sensor_id;sensor_type;location;lat;lon;timestamp;P1;durP1;ratioP1;P2;durP2;ratioP2
43678;SDS011;29279;50.858;4.392;2022-10-16T00:01:57;3.60;;;0.90;;
43678;SDS011;29279;50.858;4.392;2022-10-16T00:04:23;3.00;;;1.02;;
43678;SDS011;29279;50.858;4.392;2022-10-16T00:06:49;2.80;;;1.00;;
43678;SDS011;29279;50.858;4.392;2022-10-16T00:09:14;3.85;;;1.15;;
43678;SDS011;29279;50.858;4.392;2022-10-16T00:11:40;4.00;;;0.75;;
43678;SDS011;29279;50.858;4.392;2022-10-16T00:14:07;1.23;;;0.68;;
43678;SDS011;29279;50.858;4.392;2022-10-16T00:16:38;1.73;;;0.80;;
43678;SDS011;29279;50.858;4.392;2022-10-16T00:19:03;5.65;;;0.90;;
43678;SDS011;29279;50.858;4.392;2022-10-16T00:21:30;2.00;;;0.80;;
43678;SDS011;29279;50.858;4.392;2022-10-16T00:23:58;5.15;;;0.90;;
43678;SDS011;29279;50.858;4.392;2022-10-16T00:26:27;2.45;;;0.80;;
43678;SDS011;29279;50.858;4.392;2022-10-16T00:28:54;1.48;;;0.88;;
43678;SDS011;29279;50.858;4.392;2022-10-16T00:31:21;1.63;;;0.90;;
43678;SDS011;29279;50.858;4.392;2022-10-16T00:33:48;7.18;;;1.08;;
43678;SDS011;29279;50.858;4.392;2022-10-16T00:36:15;2.38;;;1.10;;
43678;SDS011;29279;50.858;4.392;2022-10-16T00:38:42;2.00;;;1.00;;
43678;SDS011;29279;50.858;4.392;2022-10-16T00:41:13;2.08;;;0.90;;
43678;SDS011;29279;50.858;4.392;2022-10-16T00:43:41;2.28;;;0.90;;
43678;SDS011;29279;50.858;4.392;2022-10-16T00:46:40;1.67;;;0.88;;
43678;SDS011;29279;50.858;4.392;2022-10-16T00:49:17;5.10;;;0.90;;
43678;SDS011;29279;50.858;4.392;2022-10-16T00:51:48;1.60;;;1.00;;
43678;SDS011;29279;50.858;4.392;2022-10-16T00:56:47;2.15;;;1.02;;
43678;SDS011;29279;50.858;4.392;2022-10-16T00:59:15;4.80;;;1.10;;
43678;SDS011;29279;50.858;4.392;2022-10-16T01:01:44;3.03;;;1.02;;
43678;SDS011;29279;50.858;4.392;2022-10-16T01:04:10;1.65;;;0.95;;
43678;SDS011;29279;50.858;4.392;2022-10-16T01:09:34;3.03;;;1.08;;
43678;SDS011;29279;50.858;4.392;2022-10-16T01:15:08;3.22;;;1.30;;
43678;SDS011;29279;50.858;4.392;2022-10-16T01:20:34;3.10;;;1.15;;
43678;SDS011;29279;50.858;4.392;2022-10-16T01:28:53;2.75;;;1.20;;
43678;SDS011;29279;50.858;4.392;2022-10-16T01:31:22;6.75;;;1.00;;
43678;SDS011;29279;50.858;4.392;2022-10-16T01:33:56;1.83;;;1.13;;
43678;SDS011;29279;50.858;4.392;2022-10-16T01:36:33;4.07;;;1.23;;
43678;SDS011;29279;50.858;4.392;2022-10-16T01:39:02;1.98;;;1.40;;
43678;SDS011;29279;50.858;4.392;2022-10-16T01:41:33;2.72;;;1.42;;
43678;SDS011;29279;50.858;4.392;2022-10-16T01:44:07;3.67;;;1.35;;
43678;SDS011;29279;50.858;4.392;2022-10-16T01:46:50;3.58;;;1.05;;
43678;SDS011;29279;50.858;4.392;2022-10-16T01:49:18;3.42;;;1.33;;
43678;SDS011;29279;50.858;4.392;2022-10-16T01:51:46;3.33;;;1.15;;
43678;SDS011;29279;50.858;4.392;2022-10-16T01:54:17;2.08;;;1.25;;
43678;SDS011;29279;50.858;4.392;2022-10-16T01:56:44;3.00;;;1.27;;
43678;SDS011;29279;50.858;4.392;2022-10-16T01:59:13;12.27;;;1.63;;
43678;SDS011;29279;50.858;4.392;2022-10-16T02:01:43;2.97;;;1.27;;
43678;SDS011;29279;50.858;4.392;2022-10-16T02:04:19;4.80;;;1.00;;
43678;SDS011;29279;50.858;4.392;2022-10-16T02:07:03;5.18;;;1.45;;
43678;SDS011;29279;50.858;4.392;2022-10-16T02:09:30;1.58;;;0.82;;
43678;SDS011;29279;50.858;4.392;2022-10-16T02:11:58;2.85;;;1.10;;
43678;SDS011;29279;50.858;4.392;2022-10-16T02:14:27;4.18;;;1.42;;
43678;SDS011;29279;50.858;4.392;2022-10-16T02:16:53;3.03;;;1.10;;
43678;SDS011;29279;50.858;4.392;2022-10-16T02:19:19;4.95;;;1.23;;
43678;SDS011;29279;50.858;4.392;2022-10-16T02:21:48;4.75;;;1.55;;
43678;SDS011;29279;50.858;4.392;2022-10-16T02:27:05;1.83;;;1.23;;
43678;SDS011;29279;50.858;4.392;2022-10-16T02:29:40;3.63;;;1.13;;
43678;SDS011;29279;50.858;4.392;2022-10-16T02:32:13;5.63;;;1.05;;
43678;SDS011;29279;50.858;4.392;2022-10-16T02:34:41;4.32;;;1.30;;
43678;SDS011;29279;50.858;4.392;2022-10-16T02:37:07;3.83;;;1.50;;
43678;SDS011;29279;50.858;4.392;2022-10-16T02:39:33;4.93;;;1.27;;
43678;SDS011;29279;50.858;4.392;2022-10-16T02:41:59;4.32;;;1.20;;
43678;SDS011;29279;50.858;4.392;2022-10-16T02:44:26;4.03;;;1.27;;
43678;SDS011;29279;50.858;4.392;2022-10-16T02:46:51;8.27;;;1.40;;
43678;SDS011;29279;50.858;4.392;2022-10-16T02:49:17;4.07;;;1.65;;
43678;SDS011;29279;50.858;4.392;2022-10-16T02:51:43;8.25;;;1.60;;
43678;SDS011;29279;50.858;4.392;2022-10-16T02:54:09;3.55;;;1.50;;
43678;SDS011;29279;50.858;4.392;2022-10-16T02:56:35;5.63;;;1.20;;
43678;SDS011;29279;50.858;4.392;2022-10-16T02:59:01;3.40;;;1.30;;
43678;SDS011;29279;50.858;4.392;2022-10-16T03:01:26;2.92;;;1.13;;
43678;SDS011;29279;50.858;4.392;2022-10-16T03:03:52;7.40;;;1.50;;
43678;SDS011;29279;50.858;4.392;2022-10-16T03:06:18;2.83;;;1.52;;
43678;SDS011;29279;50.858;4.392;2022-10-16T03:08:44;5.13;;;1.77;;
43678;SDS011;29279;50.858;4.392;2022-10-16T03:11:09;3.80;;;1.27;;
43678;SDS011;29279;50.858;4.392;2022-10-16T03:13:35;4.90;;;1.65;;
43678;SDS011;29279;50.858;4.392;2022-10-16T03:16:00;5.32;;;1.75;;
43678;SDS011;29279;50.858;4.392;2022-10-16T03:18:26;8.10;;;1.50;;
43678;SDS011;29279;50.858;4.392;2022-10-16T03:20:52;4.07;;;1.60;;
43678;SDS011;29279;50.858;4.392;2022-10-16T03:23:18;5.95;;;1.33;;
43678;SDS011;29279;50.858;4.392;2022-10-16T03:25:44;4.40;;;1.40;;
43678;SDS011;29279;50.858;4.392;2022-10-16T03:28:09;4.85;;;1.40;;
43678;SDS011;29279;50.858;4.392;2022-10-16T03:30:35;4.57;;;1.52;;
43678;SDS011;29279;50.858;4.392;2022-10-16T03:33:01;8.48;;;1.73;;
43678;SDS011;29279;50.858;4.392;2022-10-16T03:35:26;8.18;;;1.80;;
43678;SDS011;29279;50.858;4.392;2022-10-16T03:37:52;7.55;;;2.05;;
43678;SDS011;29279;50.858;4.392;2022-10-16T03:40:18;8.40;;;1.70;;
43678;SDS011;29279;50.858;4.392;2022-10-16T03:42:44;1.58;;;1.15;;
43678;SDS011;29279;50.858;4.392;2022-10-16T03:45:10;7.65;;;1.50;;
43678;SDS011;29279;50.858;4.392;2022-10-16T03:47:36;3.70;;;1.30;;
43678;SDS011;29279;50.858;4.392;2022-10-16T03:50:02;5.47;;;1.40;;
43678;SDS011;29279;50.858;4.392;2022-10-16T03:52:29;4.20;;;1.60;;
43678;SDS011;29279;50.858;4.392;2022-10-16T03:54:54;6.47;;;1.38;;
43678;SDS011;29279;50.858;4.392;2022-10-16T03:57:20;5.15;;;1.45;;
43678;SDS011;29279;50.858;4.392;2022-10-16T03:59:46;4.53;;;1.10;;
43678;SDS011;29279;50.858;4.392;2022-10-16T04:02:12;7.43;;;1.77;;
43678;SDS011;29279;50.858;4.392;2022-10-16T04:04:38;6.10;;;2.28;;
43678;SDS011;29279;50.858;4.392;2022-10-16T04:07:03;1.92;;;1.20;;
43678;SDS011;29279;50.858;4.392;2022-10-16T04:09:29;7.20;;;1.67;;
43678;SDS011;29279;50.858;4.392;2022-10-16T04:11:55;13.00;;;1.70;;
43678;SDS011;29279;50.858;4.392;2022-10-16T04:14:20;5.32;;;1.42;;
43678;SDS011;29279;50.858;4.392;2022-10-16T04:16:46;7.18;;;1.55;;
43678;SDS011;29279;50.858;4.392;2022-10-16T04:19:12;6.00;;;1.45;;
43678;SDS011;29279;50.858;4.392;2022-10-16T04:21:38;6.97;;;1.35;;
43678;SDS011;29279;50.858;4.392;2022-10-16T04:24:04;4.43;;;1.20;;
43678;SDS011;29279;50.858;4.392;2022-10-16T04:26:30;4.38;;;1.35;;
43678;SDS011;29279;50.858;4.392;2022-10-16T04:28:55;6.55;;;1.52;;
43678;SDS011;29279;50.858;4.392;2022-10-16T04:31:21;4.82;;;1.88;;
43678;SDS011;29279;50.858;4.392;2022-10-16T04:33:47;7.00;;;1.50;;
43678;SDS011;29279;50.858;4.392;2022-10-16T04:36:13;8.55;;;1.30;;
43678;SDS011;29279;50.858;4.392;2022-10-16T04:38:39;5.05;;;1.52;;
43678;SDS011;29279;50.858;4.392;2022-10-16T04:41:05;4.18;;;1.63;;
43678;SDS011;29279;50.858;4.392;2022-10-16T04:43:31;6.25;;;1.58;;
43678;SDS011;29279;50.858;4.392;2022-10-16T04:45:58;6.72;;;1.52;;
43678;SDS011;29279;50.858;4.392;2022-10-16T04:48:23;3.88;;;1.63;;
43678;SDS011;29279;50.858;4.392;2022-10-16T04:50:49;5.35;;;1.65;;
43678;SDS011;29279;50.858;4.392;2022-10-16T04:53:15;6.57;;;1.70;;
43678;SDS011;29279;50.858;4.392;2022-10-16T04:55:41;4.97;;;1.60;;
43678;SDS011;29279;50.858;4.392;2022-10-16T04:58:07;3.85;;;1.60;;
43678;SDS011;29279;50.858;4.392;2022-10-16T05:00:33;17.15;;;2.58;;
43678;SDS011;29279;50.858;4.392;2022-10-16T05:02:59;5.60;;;1.40;;
43678;SDS011;29279;50.858;4.392;2022-10-16T05:05:26;9.73;;;1.85;;
43678;SDS011;29279;50.858;4.392;2022-10-16T05:07:52;9.15;;;1.35;;
43678;SDS011;29279;50.858;4.392;2022-10-16T05:10:18;7.50;;;1.77;;
43678;SDS011;29279;50.858;4.392;2022-10-16T05:12:45;7.10;;;1.75;;
43678;SDS011;29279;50.858;4.392;2022-10-16T05:15:11;5.18;;;1.90;;
43678;SDS011;29279;50.858;4.392;2022-10-16T05:17:37;5.32;;;2.10;;
43678;SDS011;29279;50.858;4.392;2022-10-16T05:20:03;7.30;;;1.85;;
43678;SDS011;29279;50.858;4.392;2022-10-16T05:22:30;6.15;;;2.38;;
43678;SDS011;29279;50.858;4.392;2022-10-16T05:24:55;7.18;;;2.00;;
43678;SDS011;29279;50.858;4.392;2022-10-16T05:27:21;6.55;;;2.03;;
43678;SDS011;29279;50.858;4.392;2022-10-16T05:29:47;7.00;;;2.75;;
43678;SDS011;29279;50.858;4.392;2022-10-16T05:32:17;4.80;;;2.10;;
43678;SDS011;29279;50.858;4.392;2022-10-16T05:34:43;6.32;;;2.15;;
43678;SDS011;29279;50.858;4.392;2022-10-16T05:37:10;11.75;;;2.78;;
43678;SDS011;29279;50.858;4.392;2022-10-16T05:39:37;5.63;;;2.20;;
43678;SDS011;29279;50.858;4.392;2022-10-16T05:42:03;9.40;;;1.73;;
43678;SDS011;29279;50.858;4.392;2022-10-16T05:44:29;4.40;;;1.88;;
43678;SDS011;29279;50.858;4.392;2022-10-16T05:46:55;4.63;;;2.10;;
43678;SDS011;29279;50.858;4.392;2022-10-16T05:49:21;7.22;;;2.22;;
43678;SDS011;29279;50.858;4.392;2022-10-16T05:51:46;4.90;;;1.80;;
43678;SDS011;29279;50.858;4.392;2022-10-16T05:54:12;7.88;;;2.08;;
43678;SDS011;29279;50.858;4.392;2022-10-16T05:56:38;4.30;;;2.08;;
43678;SDS011;29279;50.858;4.392;2022-10-16T05:59:04;5.95;;;2.17;;
43678;SDS011;29279;50.858;4.392;2022-10-16T06:01:30;8.68;;;1.77;;
43678;SDS011;29279;50.858;4.392;2022-10-16T06:03:56;5.53;;;2.03;;
43678;SDS011;29279;50.858;4.392;2022-10-16T06:06:23;5.40;;;1.85;;
43678;SDS011;29279;50.858;4.392;2022-10-16T06:08:51;8.25;;;1.77;;
43678;SDS011;29279;50.858;4.392;2022-10-16T06:11:22;5.10;;;1.63;;
43678;SDS011;29279;50.858;4.392;2022-10-16T06:13:52;6.55;;;1.70;;
43678;SDS011;29279;50.858;4.392;2022-10-16T06:16:22;4.82;;;1.95;;
43678;SDS011;29279;50.858;4.392;2022-10-16T06:18:50;5.57;;;2.15;;
43678;SDS011;29279;50.858;4.392;2022-10-16T06:21:17;4.15;;;1.63;;
43678;SDS011;29279;50.858;4.392;2022-10-16T06:23:44;5.97;;;2.33;;
43678;SDS011;29279;50.858;4.392;2022-10-16T06:26:14;7.05;;;2.00;;
43678;SDS011;29279;50.858;4.392;2022-10-16T06:28:41;3.40;;;1.65;;
43678;SDS011;29279;50.858;4.392;2022-10-16T06:31:08;4.68;;;2.20;;
43678;SDS011;29279;50.858;4.392;2022-10-16T06:33:35;5.22;;;1.90;;
43678;SDS011;29279;50.858;4.392;2022-10-16T06:36:02;4.53;;;1.42;;
43678;SDS011;29279;50.858;4.392;2022-10-16T06:38:28;5.93;;;1.88;;
43678;SDS011;29279;50.858;4.392;2022-10-16T06:40:55;6.15;;;1.80;;
43678;SDS011;29279;50.858;4.392;2022-10-16T06:43:21;7.50;;;1.75;;
43678;SDS011;29279;50.858;4.392;2022-10-16T06:45:50;6.80;;;2.20;;
43678;SDS011;29279;50.858;4.392;2022-10-16T06:48:20;3.25;;;1.88;;
43678;SDS011;29279;50.858;4.392;2022-10-16T06:50:55;6.60;;;2.10;;
43678;SDS011;29279;50.858;4.392;2022-10-16T06:53:30;5.88;;;1.88;;
43678;SDS011;29279;50.858;4.392;2022-10-16T06:56:01;5.78;;;2.35;;
43678;SDS011;29279;50.858;4.392;2022-10-16T06:58:42;3.38;;;1.55;;
43678;SDS011;29279;50.858;4.392;2022-10-16T07:01:09;8.93;;;2.38;;
43678;SDS011;29279;50.858;4.392;2022-10-16T07:03:36;5.97;;;1.73;;
43678;SDS011;29279;50.858;4.392;2022-10-16T07:06:03;6.47;;;1.75;;
43678;SDS011;29279;50.858;4.392;2022-10-16T07:08:31;6.10;;;1.83;;
43678;SDS011;29279;50.858;4.392;2022-10-16T07:11:02;7.40;;;2.42;;
43678;SDS011;29279;50.858;4.392;2022-10-16T07:13:29;7.43;;;1.98;;
43678;SDS011;29279;50.858;4.392;2022-10-16T07:15:58;5.80;;;1.85;;
43678;SDS011;29279;50.858;4.392;2022-10-16T07:18:28;6.13;;;1.80;;
43678;SDS011;29279;50.858;4.392;2022-10-16T07:21:02;10.23;;;2.30;;
43678;SDS011;29279;50.858;4.392;2022-10-16T07:23:32;8.43;;;2.33;;
43678;SDS011;29279;50.858;4.392;2022-10-16T07:25:58;13.82;;;2.08;;
43678;SDS011;29279;50.858;4.392;2022-10-16T07:28:24;4.50;;;2.20;;
43678;SDS011;29279;50.858;4.392;2022-10-16T07:30:50;7.55;;;2.35;;
43678;SDS011;29279;50.858;4.392;2022-10-16T07:33:15;5.65;;;2.20;;
43678;SDS011;29279;50.858;4.392;2022-10-16T07:35:48;7.20;;;2.22;;
43678;SDS011;29279;50.858;4.392;2022-10-16T07:38:15;7.10;;;2.85;;
43678;SDS011;29279;50.858;4.392;2022-10-16T07:40:40;3.40;;;2.05;;
43678;SDS011;29279;50.858;4.392;2022-10-16T07:43:06;4.10;;;2.20;;
43678;SDS011;29279;50.858;4.392;2022-10-16T07:45:32;6.28;;;2.05;;
43678;SDS011;29279;50.858;4.392;2022-10-16T07:47:57;2.88;;;1.52;;
43678;SDS011;29279;50.858;4.392;2022-10-16T07:50:23;8.10;;;2.20;;
43678;SDS011;29279;50.858;4.392;2022-10-16T07:52:49;8.50;;;2.53;;
43678;SDS011;29279;50.858;4.392;2022-10-16T07:55:14;7.32;;;2.13;;
43678;SDS011;29279;50.858;4.392;2022-10-16T07:57:40;6.00;;;2.28;;
43678;SDS011;29279;50.858;4.392;2022-10-16T08:00:06;7.57;;;2.33;;
43678;SDS011;29279;50.858;4.392;2022-10-16T08:02:32;9.15;;;2.58;;
43678;SDS011;29279;50.858;4.392;2022-10-16T08:04:57;7.95;;;2.70;;
43678;SDS011;29279;50.858;4.392;2022-10-16T08:07:23;10.70;;;2.08;;
43678;SDS011;29279;50.858;4.392;2022-10-16T08:09:49;5.32;;;2.38;;
43678;SDS011;29279;50.858;4.392;2022-10-16T08:12:16;7.15;;;1.98;;
43678;SDS011;29279;50.858;4.392;2022-10-16T08:14:42;3.60;;;1.85;;
43678;SDS011;29279;50.858;4.392;2022-10-16T08:17:08;6.97;;;2.08;;
43678;SDS011;29279;50.858;4.392;2022-10-16T08:19:33;5.03;;;2.05;;
43678;SDS011;29279;50.858;4.392;2022-10-16T08:21:59;6.03;;;2.17;;
43678;SDS011;29279;50.858;4.392;2022-10-16T08:24:26;4.72;;;2.28;;
43678;SDS011;29279;50.858;4.392;2022-10-16T08:26:53;10.23;;;1.98;;
43678;SDS011;29279;50.858;4.392;2022-10-16T08:29:19;7.88;;;2.15;;
43678;SDS011;29279;50.858;4.392;2022-10-16T08:31:45;6.90;;;2.30;;
43678;SDS011;29279;50.858;4.392;2022-10-16T08:34:10;5.88;;;1.70;;
43678;SDS011;29279;50.858;4.392;2022-10-16T08:36:36;10.13;;;1.88;;
43678;SDS011;29279;50.858;4.392;2022-10-16T08:39:02;4.28;;;1.80;;
43678;SDS011;29279;50.858;4.392;2022-10-16T08:47:20;4.37;;;1.37;;
43678;SDS011;29279;50.858;4.392;2022-10-16T08:50:10;6.18;;;1.60;;
43678;SDS011;29279;50.858;4.392;2022-10-16T08:52:42;7.57;;;1.80;;
43678;SDS011;29279;50.858;4.392;2022-10-16T08:58:02;7.65;;;1.50;;
43678;SDS011;29279;50.858;4.392;2022-10-16T09:00:41;13.30;;;6.35;;
43678;SDS011;29279;50.858;4.392;2022-10-16T09:06:21;7.40;;;1.73;;
43678;SDS011;29279;50.858;4.392;2022-10-16T09:08:57;6.88;;;1.65;;
43678;SDS011;29279;50.858;4.392;2022-10-16T09:17:03;7.50;;;1.38;;
43678;SDS011;29279;50.858;4.392;2022-10-16T09:19:44;6.07;;;1.90;;
43678;SDS011;29279;50.858;4.392;2022-10-16T09:22:17;6.47;;;1.50;;
43678;SDS011;29279;50.858;4.392;2022-10-16T09:24:51;8.15;;;1.60;;
43678;SDS011;29279;50.858;4.392;2022-10-16T09:27:19;7.78;;;1.65;;
43678;SDS011;29279;50.858;4.392;2022-10-16T09:29:44;6.35;;;1.45;;
43678;SDS011;29279;50.858;4.392;2022-10-16T09:32:12;5.68;;;1.25;;
43678;SDS011;29279;50.858;4.392;2022-10-16T09:34:42;8.65;;;1.75;;
43678;SDS011;29279;50.858;4.392;2022-10-16T09:37:13;7.63;;;1.87;;
43678;SDS011;29279;50.858;4.392;2022-10-16T09:39:46;5.95;;;1.80;;
43678;SDS011;29279;50.858;4.392;2022-10-16T09:42:23;8.15;;;1.77;;
43678;SDS011;29279;50.858;4.392;2022-10-16T09:44:53;5.15;;;1.63;;
43678;SDS011;29279;50.858;4.392;2022-10-16T09:47:20;7.95;;;1.63;;
43678;SDS011;29279;50.858;4.392;2022-10-16T09:49:55;6.47;;;1.63;;
43678;SDS011;29279;50.858;4.392;2022-10-16T09:52:24;6.32;;;1.50;;
43678;SDS011;29279;50.858;4.392;2022-10-16T09:57:27;6.55;;;1.67;;
43678;SDS011;29279;50.858;4.392;2022-10-16T09:59:53;5.35;;;1.60;;
43678;SDS011;29279;50.858;4.392;2022-10-16T10:02:30;7.85;;;1.73;;
43678;SDS011;29279;50.858;4.392;2022-10-16T10:04:59;5.82;;;1.75;;
43678;SDS011;29279;50.858;4.392;2022-10-16T10:07:27;10.40;;;2.03;;
43678;SDS011;29279;50.858;4.392;2022-10-16T10:09:58;7.07;;;1.58;;
43678;SDS011;29279;50.858;4.392;2022-10-16T10:12:24;8.02;;;1.48;;
43678;SDS011;29279;50.858;4.392;2022-10-16T10:14:52;6.40;;;1.50;;
43678;SDS011;29279;50.858;4.392;2022-10-16T10:17:21;6.93;;;2.22;;
43678;SDS011;29279;50.858;4.392;2022-10-16T10:27:41;7.15;;;1.45;;
43678;SDS011;29279;50.858;4.392;2022-10-16T10:30:22;7.60;;;1.73;;
43678;SDS011;29279;50.858;4.392;2022-10-16T10:46:41;4.47;;;1.60;;
43678;SDS011;29279;50.858;4.392;2022-10-16T10:55:00;7.68;;;1.63;;
43678;SDS011;29279;50.858;4.392;2022-10-16T11:03:46;7.18;;;1.60;;
43678;SDS011;29279;50.858;4.392;2022-10-16T11:09:08;5.72;;;1.70;;
43678;SDS011;29279;50.858;4.392;2022-10-16T11:14:28;5.43;;;1.42;;
43678;SDS011;29279;50.858;4.392;2022-10-16T11:17:01;9.32;;;1.73;;
43678;SDS011;29279;50.858;4.392;2022-10-16T11:19:35;6.45;;;1.45;;
43678;SDS011;29279;50.858;4.392;2022-10-16T11:22:04;5.35;;;1.55;;
43678;SDS011;29279;50.858;4.392;2022-10-16T11:27:37;7.93;;;1.30;;
43678;SDS011;29279;50.858;4.392;2022-10-16T11:30:08;6.30;;;1.40;;
43678;SDS011;29279;50.858;4.392;2022-10-16T11:37:59;4.30;;;1.20;;
43678;SDS011;29279;50.858;4.392;2022-10-16T11:40:28;4.55;;;1.70;;
43678;SDS011;29279;50.858;4.392;2022-10-16T11:43:10;5.03;;;1.63;;
43678;SDS011;29279;50.858;4.392;2022-10-16T11:46:03;6.03;;;1.80;;
43678;SDS011;29279;50.858;4.392;2022-10-16T11:48:41;6.63;;;1.90;;
43678;SDS011;29279;50.858;4.392;2022-10-16T11:56:46;8.77;;;1.83;;
43678;SDS011;29279;50.858;4.392;2022-10-16T11:59:37;5.20;;;1.20;;
43678;SDS011;29279;50.858;4.392;2022-10-16T12:02:28;4.30;;;1.23;;
43678;SDS011;29279;50.858;4.392;2022-10-16T12:05:24;8.38;;;1.90;;
43678;SDS011;29279;50.858;4.392;2022-10-16T12:08:11;7.35;;;2.25;;
43678;SDS011;29279;50.858;4.392;2022-10-16T12:10:38;3.90;;;1.05;;
43678;SDS011;29279;50.858;4.392;2022-10-16T12:18:30;4.68;;;1.50;;
43678;SDS011;29279;50.858;4.392;2022-10-16T12:20:57;7.00;;;1.58;;
43678;SDS011;29279;50.858;4.392;2022-10-16T12:23:31;7.75;;;1.50;;
43678;SDS011;29279;50.858;4.392;2022-10-16T12:26:04;3.88;;;1.08;;
43678;SDS011;29279;50.858;4.392;2022-10-16T12:28:31;7.57;;;1.33;;
43678;SDS011;29279;50.858;4.392;2022-10-16T12:30:59;4.60;;;1.00;;
43678;SDS011;29279;50.858;4.392;2022-10-16T12:35:58;10.00;;;1.88;;
43678;SDS011;29279;50.858;4.392;2022-10-16T12:38:28;4.18;;;1.30;;
43678;SDS011;29279;50.858;4.392;2022-10-16T12:46:04;3.92;;;1.00;;
43678;SDS011;29279;50.858;4.392;2022-10-16T12:48:46;5.75;;;1.30;;
43678;SDS011;29279;50.858;4.392;2022-10-16T12:59:09;8.13;;;1.40;;
43678;SDS011;29279;50.858;4.392;2022-10-16T13:19:22;3.80;;;1.10;;
43678;SDS011;29279;50.858;4.392;2022-10-16T13:24:40;5.63;;;1.27;;
43678;SDS011;29279;50.858;4.392;2022-10-16T13:30:26;2.90;;;1.05;;
43678;SDS011;29279;50.858;4.392;2022-10-16T13:33:04;5.22;;;1.30;;
43678;SDS011;29279;50.858;4.392;2022-10-16T13:38:19;3.10;;;1.52;;
43678;SDS011;29279;50.858;4.392;2022-10-16T13:40:57;13.40;;;1.33;;
43678;SDS011;29279;50.858;4.392;2022-10-16T13:43:28;7.22;;;1.30;;
43678;SDS011;29279;50.858;4.392;2022-10-16T13:46:03;5.82;;;1.13;;
43678;SDS011;29279;50.858;4.392;2022-10-16T13:48:31;8.57;;;2.05;;
43678;SDS011;29279;50.858;4.392;2022-10-16T13:51:02;7.03;;;1.40;;
43678;SDS011;29279;50.858;4.392;2022-10-16T13:53:36;6.00;;;1.73;;
43678;SDS011;29279;50.858;4.392;2022-10-16T13:56:06;8.57;;;1.88;;
43678;SDS011;29279;50.858;4.392;2022-10-16T13:58:37;5.32;;;1.25;;
43678;SDS011;29279;50.858;4.392;2022-10-16T14:01:03;11.18;;;1.75;;
43678;SDS011;29279;50.858;4.392;2022-10-16T14:03:31;3.25;;;1.20;;
43678;SDS011;29279;50.858;4.392;2022-10-16T14:06:01;3.47;;;0.90;;
43678;SDS011;29279;50.858;4.392;2022-10-16T14:08:29;4.90;;;1.38;;
43678;SDS011;29279;50.858;4.392;2022-10-16T14:10:57;5.85;;;1.40;;
43678;SDS011;29279;50.858;4.392;2022-10-16T14:13:34;4.43;;;1.40;;
43678;SDS011;29279;50.858;4.392;2022-10-16T14:16:05;7.15;;;1.58;;
43678;SDS011;29279;50.858;4.392;2022-10-16T14:18:34;6.43;;;1.33;;
43678;SDS011;29279;50.858;4.392;2022-10-16T14:21:07;16.75;;;1.58;;
43678;SDS011;29279;50.858;4.392;2022-10-16T14:23:37;6.35;;;0.95;;
43678;SDS011;29279;50.858;4.392;2022-10-16T14:26:05;5.68;;;1.40;;
43678;SDS011;29279;50.858;4.392;2022-10-16T14:28:43;4.18;;;1.17;;
43678;SDS011;29279;50.858;4.392;2022-10-16T14:31:26;6.45;;;1.13;;
43678;SDS011;29279;50.858;4.392;2022-10-16T14:33:57;8.20;;;1.35;;
43678;SDS011;29279;50.858;4.392;2022-10-16T14:36:24;5.57;;;1.67;;
43678;SDS011;29279;50.858;4.392;2022-10-16T14:39:02;4.78;;;1.30;;
43678;SDS011;29279;50.858;4.392;2022-10-16T14:41:31;8.23;;;1.60;;
43678;SDS011;29279;50.858;4.392;2022-10-16T14:44:05;5.38;;;1.63;;
43678;SDS011;29279;50.858;4.392;2022-10-16T14:46:32;7.78;;;2.03;;
43678;SDS011;29279;50.858;4.392;2022-10-16T14:51:37;8.38;;;1.55;;
43678;SDS011;29279;50.858;4.392;2022-10-16T14:54:09;9.73;;;1.70;;
43678;SDS011;29279;50.858;4.392;2022-10-16T14:56:57;4.47;;;1.30;;
43678;SDS011;29279;50.858;4.392;2022-10-16T14:59:32;3.80;;;1.35;;
43678;SDS011;29279;50.858;4.392;2022-10-16T15:02:02;5.65;;;1.60;;
43678;SDS011;29279;50.858;4.392;2022-10-16T15:07:20;12.23;;;1.92;;
43678;SDS011;29279;50.858;4.392;2022-10-16T15:09:47;4.75;;;1.63;;
43678;SDS011;29279;50.858;4.392;2022-10-16T15:12:13;8.07;;;1.98;;
43678;SDS011;29279;50.858;4.392;2022-10-16T15:14:38;11.82;;;2.25;;
43678;SDS011;29279;50.858;4.392;2022-10-16T15:17:04;6.43;;;1.95;;
43678;SDS011;29279;50.858;4.392;2022-10-16T15:19:30;6.55;;;1.85;;
43678;SDS011;29279;50.858;4.392;2022-10-16T15:21:56;9.80;;;1.63;;
43678;SDS011;29279;50.858;4.392;2022-10-16T15:24:22;13.70;;;1.90;;
43678;SDS011;29279;50.858;4.392;2022-10-16T15:26:47;10.35;;;2.08;;
43678;SDS011;29279;50.858;4.392;2022-10-16T15:29:15;5.32;;;1.70;;
43678;SDS011;29279;50.858;4.392;2022-10-16T15:31:41;6.05;;;1.60;;
43678;SDS011;29279;50.858;4.392;2022-10-16T15:34:12;7.40;;;1.85;;
43678;SDS011;29279;50.858;4.392;2022-10-16T15:36:38;7.80;;;1.60;;
43678;SDS011;29279;50.858;4.392;2022-10-16T15:39:05;9.05;;;2.30;;
43678;SDS011;29279;50.858;4.392;2022-10-16T15:41:38;9.18;;;2.10;;
43678;SDS011;29279;50.858;4.392;2022-10-16T15:44:04;5.78;;;2.15;;
43678;SDS011;29279;50.858;4.392;2022-10-16T15:46:30;8.18;;;2.22;;
43678;SDS011;29279;50.858;4.392;2022-10-16T15:48:58;12.15;;;2.85;;
43678;SDS011;29279;50.858;4.392;2022-10-16T15:51:25;13.82;;;3.17;;
43678;SDS011;29279;50.858;4.392;2022-10-16T15:53:57;10.82;;;3.45;;
43678;SDS011;29279;50.858;4.392;2022-10-16T15:56:24;8.93;;;2.95;;
43678;SDS011;29279;50.858;4.392;2022-10-16T15:58:51;10.52;;;2.42;;
43678;SDS011;29279;50.858;4.392;2022-10-16T16:01:18;9.38;;;2.60;;
43678;SDS011;29279;50.858;4.392;2022-10-16T16:03:44;9.55;;;2.25;;
43678;SDS011;29279;50.858;4.392;2022-10-16T16:06:11;9.15;;;2.47;;
43678;SDS011;29279;50.858;4.392;2022-10-16T16:08:37;6.68;;;2.17;;
43678;SDS011;29279;50.858;4.392;2022-10-16T16:11:08;8.02;;;1.75;;
43678;SDS011;29279;50.858;4.392;2022-10-16T16:13:36;5.13;;;2.30;;
43678;SDS011;29279;50.858;4.392;2022-10-16T16:16:06;7.70;;;2.13;;
43678;SDS011;29279;50.858;4.392;2022-10-16T16:18:33;9.07;;;2.75;;
43678;SDS011;29279;50.858;4.392;2022-10-16T16:20:59;5.30;;;1.83;;
43678;SDS011;29279;50.858;4.392;2022-10-16T16:23:25;5.30;;;2.03;;
43678;SDS011;29279;50.858;4.392;2022-10-16T16:28:35;10.75;;;2.13;;
43678;SDS011;29279;50.858;4.392;2022-10-16T16:31:01;15.85;;;3.13;;
43678;SDS011;29279;50.858;4.392;2022-10-16T16:33:27;5.82;;;2.53;;
43678;SDS011;29279;50.858;4.392;2022-10-16T16:35:56;7.40;;;2.42;;
43678;SDS011;29279;50.858;4.392;2022-10-16T16:38:23;6.38;;;3.15;;
43678;SDS011;29279;50.858;4.392;2022-10-16T16:40:48;9.18;;;3.30;;
43678;SDS011;29279;50.858;4.392;2022-10-16T16:43:14;13.18;;;2.97;;
43678;SDS011;29279;50.858;4.392;2022-10-16T16:45:40;14.70;;;2.90;;
43678;SDS011;29279;50.858;4.392;2022-10-16T16:48:06;16.00;;;3.05;;
43678;SDS011;29279;50.858;4.392;2022-10-16T16:50:35;7.07;;;2.42;;
43678;SDS011;29279;50.858;4.392;2022-10-16T16:53:01;17.45;;;2.83;;
43678;SDS011;29279;50.858;4.392;2022-10-16T16:55:27;6.88;;;2.08;;
43678;SDS011;29279;50.858;4.392;2022-10-16T16:57:53;5.82;;;2.40;;
43678;SDS011;29279;50.858;4.392;2022-10-16T17:00:18;10.55;;;2.45;;
43678;SDS011;29279;50.858;4.392;2022-10-16T17:02:47;9.55;;;2.92;;
43678;SDS011;29279;50.858;4.392;2022-10-16T17:05:14;6.50;;;3.58;;
43678;SDS011;29279;50.858;4.392;2022-10-16T17:07:40;9.07;;;4.00;;
43678;SDS011;29279;50.858;4.392;2022-10-16T17:10:06;14.65;;;4.07;;
43678;SDS011;29279;50.858;4.392;2022-10-16T17:12:32;10.27;;;3.10;;
43678;SDS011;29279;50.858;4.392;2022-10-16T17:14:58;12.32;;;6.40;;
43678;SDS011;29279;50.858;4.392;2022-10-16T17:17:24;14.23;;;4.78;;
43678;SDS011;29279;50.858;4.392;2022-10-16T17:19:50;7.55;;;2.88;;
43678;SDS011;29279;50.858;4.392;2022-10-16T17:22:16;11.88;;;3.90;;
43678;SDS011;29279;50.858;4.392;2022-10-16T17:24:42;13.15;;;4.88;;